createdAt,value
2023-03-15T00:00:40.292Z,99.99
2023-03-15T00:01:40.652Z,99.99
2023-03-15T00:02:41.075Z,99.99
2023-03-15T00:03:41.497Z,99.99
2023-03-15T00:04:41.670Z,99.99
2023-03-15T00:05:42.071Z,99.99
2023-03-15T00:06:42.391Z,99.99
2023-03-15T00:07:42.766Z,99.99
2023-03-15T00:08:43.110Z,99.99
2023-03-15T00:09:43.462Z,99.99
2023-03-15T00:10:43.862Z,99.99
2023-03-15T00:11:44.225Z,99.99
2023-03-15T00:12:44.588Z,99.99
2023-03-15T00:13:44.934Z,99.99
2023-03-15T00:14:45.319Z,99.99
2023-03-15T00:15:45.812Z,99.99
2023-03-15T00:16:46.010Z,99.99
2023-03-15T00:17:46.355Z,99.99
2023-03-15T00:18:46.732Z,99.99
2023-03-15T00:19:47.072Z,99.99
2023-03-15T00:20:47.430Z,99.99
2023-03-15T00:21:47.787Z,99.99
2023-03-15T00:22:48.143Z,99.99
2023-03-15T00:23:48.508Z,99.99
2023-03-15T00:24:48.912Z,99.99
2023-03-15T00:25:49.271Z,99.99
2023-03-15T00:26:49.583Z,99.99
2023-03-15T00:27:49.940Z,99.99
2023-03-15T00:28:50.302Z,99.99
2023-03-15T00:29:50.663Z,99.99
2023-03-15T00:30:51.056Z,99.99
2023-03-15T00:31:51.361Z,99.99
2023-03-15T00:32:51.774Z,99.99
2023-03-15T00:33:52.086Z,99.99
2023-03-15T00:34:52.460Z,99.99
2023-03-15T00:35:52.853Z,99.99
2023-03-15T00:36:53.136Z,99.99
2023-03-15T00:37:53.518Z,99.99
2023-03-15T00:38:53.884Z,99.99
2023-03-15T00:39:54.230Z,99.99
2023-03-15T00:40:54.607Z,99.99
2023-03-15T00:41:54.970Z,99.99
2023-03-15T00:42:55.324Z,99.99
2023-03-15T00:43:55.700Z,99.99
2023-03-15T00:44:56.048Z,99.99
2023-03-15T00:45:56.442Z,99.99
2023-03-15T00:46:56.807Z,99.99
2023-03-15T00:47:57.139Z,99.99
2023-03-15T00:48:57.504Z,99.99
2023-03-15T00:49:57.824Z,99.99
2023-03-15T00:50:58.258Z,99.99
2023-03-15T00:51:58.550Z,99.99
2023-03-15T00:52:58.918Z,99.99
2023-03-15T00:53:59.265Z,99.99
2023-03-15T00:54:59.597Z,99.99
2023-03-15T00:55:59.955Z,99.99
2023-03-15T00:57:00.289Z,99.99
2023-03-15T00:58:00.646Z,99.99
2023-03-15T00:59:00.981Z,99.99
2023-03-15T01:00:01.353Z,99.99
2023-03-15T01:01:01.651Z,99.99
2023-03-15T01:02:02.146Z,99.99
2023-03-15T01:03:02.454Z,99.99
2023-03-15T01:04:02.712Z,99.99
2023-03-15T01:05:03.077Z,99.99
2023-03-15T01:06:03.476Z,99.99
2023-03-15T01:07:03.819Z,99.99
2023-03-15T01:08:04.156Z,99.99
2023-03-15T01:09:04.508Z,99.99
2023-03-15T01:10:04.864Z,99.99
2023-03-15T01:11:05.239Z,99.99
2023-03-15T01:12:05.568Z,99.99
2023-03-15T01:13:05.905Z,99.99
2023-03-15T01:14:06.287Z,99.99
2023-03-15T01:15:06.680Z,99.99
2023-03-15T01:16:07.164Z,99.99
2023-03-15T01:17:07.314Z,99.99
2023-03-15T01:18:07.699Z,99.99
2023-03-15T01:19:08.030Z,99.99
2023-03-15T01:20:08.384Z,99.99
2023-03-15T01:21:08.746Z,99.99
2023-03-15T01:22:09.074Z,99.99
2023-03-15T01:23:09.439Z,99.99
2023-03-15T01:24:09.807Z,99.99
2023-03-15T01:25:10.167Z,99.99
2023-03-15T01:26:10.544Z,99.99
2023-03-15T01:27:10.887Z,99.99
2023-03-15T01:28:11.260Z,99.99
2023-03-15T01:29:11.615Z,99.99
2023-03-15T01:30:12.005Z,99.99
2023-03-15T01:31:12.413Z,99.99
2023-03-15T01:32:12.726Z,99.99
2023-03-15T01:33:13.073Z,99.99
2023-03-15T01:34:13.436Z,99.99
2023-03-15T01:35:13.798Z,99.99
2023-03-15T01:36:14.164Z,99.99
2023-03-15T01:37:14.705Z,99.99
2023-03-15T01:38:14.898Z,99.99
2023-03-15T01:39:15.277Z,99.99
2023-03-15T01:40:15.602Z,99.99
2023-03-15T01:41:15.990Z,99.99
2023-03-15T01:42:16.321Z,99.99
2023-03-15T01:43:16.697Z,99.99
2023-03-15T01:44:17.051Z,99.99
2023-03-15T01:45:17.417Z,99.99
2023-03-15T01:46:17.872Z,99.99
2023-03-15T01:47:18.140Z,99.99
2023-03-15T01:48:18.488Z,99.99
2023-03-15T01:49:18.846Z,99.99
2023-03-15T01:50:19.221Z,99.99
2023-03-15T01:51:19.582Z,99.99
2023-03-15T01:52:19.903Z,99.99
2023-03-15T01:53:20.267Z,99.99
2023-03-15T01:54:20.643Z,99.99
2023-03-15T01:55:20.992Z,99.99
2023-03-15T01:56:21.413Z,99.99
2023-03-15T01:57:21.724Z,99.99
2023-03-15T01:58:22.080Z,99.99
2023-03-15T01:59:22.439Z,99.99
2023-03-15T02:00:22.819Z,99.99
2023-03-15T02:01:23.176Z,99.99
2023-03-15T02:02:23.534Z,99.99
2023-03-15T02:03:23.834Z,99.99
2023-03-15T02:04:24.230Z,99.99
2023-03-15T02:05:24.552Z,99.99
2023-03-15T02:06:24.971Z,99.99
2023-03-15T02:07:25.279Z,99.99
2023-03-15T02:08:25.644Z,99.99
2023-03-15T02:09:26.039Z,99.99
2023-03-15T02:10:26.350Z,99.99
2023-03-15T02:11:26.739Z,99.99
2023-03-15T02:12:27.087Z,99.99
2023-03-15T02:13:27.449Z,99.99
2023-03-15T02:14:27.810Z,99.99
2023-03-15T02:15:28.179Z,99.99
2023-03-15T02:16:28.600Z,99.99
2023-03-15T02:17:28.890Z,99.99
2023-03-15T02:18:29.275Z,99.99
2023-03-15T02:19:29.611Z,99.99
2023-03-15T02:20:29.961Z,99.99
2023-03-15T02:21:30.338Z,99.99
2023-03-15T02:22:30.700Z,99.99
2023-03-15T02:23:31.065Z,99.99
2023-03-15T02:24:31.419Z,99.99
2023-03-15T02:25:31.795Z,99.99
2023-03-15T02:26:32.163Z,99.99
2023-03-15T02:27:32.575Z,99.99
2023-03-15T02:28:32.882Z,99.99
2023-03-15T02:29:33.254Z,99.99
2023-03-15T02:30:33.575Z,99.99
2023-03-15T02:31:33.966Z,99.99
2023-03-15T02:32:34.307Z,99.99
2023-03-15T02:33:34.631Z,99.99
2023-03-15T02:34:34.987Z,99.99
2023-03-15T02:35:35.382Z,99.99
2023-03-15T02:36:35.731Z,99.99
2023-03-15T02:37:36.088Z,99.99
2023-03-15T02:38:36.450Z,99.99
2023-03-15T02:39:36.811Z,99.99
2023-03-15T02:40:37.126Z,99.99
2023-03-15T02:41:37.579Z,99.99
2023-03-15T02:42:37.859Z,99.99
2023-03-15T02:43:38.217Z,99.99
2023-03-15T02:44:38.581Z,99.99
2023-03-15T02:45:39.018Z,99.99
2023-03-15T02:46:39.302Z,99.99
2023-03-15T02:47:39.619Z,99.99
2023-03-15T02:48:39.984Z,99.99
2023-03-15T02:49:40.363Z,99.99
2023-03-15T02:50:40.682Z,99.99
2023-03-15T02:51:41.077Z,99.99
2023-03-15T02:52:41.385Z,99.99
2023-03-15T02:53:41.744Z,99.99
2023-03-15T02:54:42.091Z,99.99
2023-03-15T02:55:42.464Z,99.99
2023-03-15T02:56:42.834Z,99.99
2023-03-15T02:57:43.163Z,99.99
2023-03-15T02:58:43.548Z,99.99
2023-03-15T02:59:43.902Z,99.99
2023-03-15T03:00:44.249Z,99.99
2023-03-15T03:01:44.626Z,99.99
2023-03-15T03:02:45.002Z,99.99
2023-03-15T03:03:45.333Z,99.99
2023-03-15T03:04:45.746Z,99.99
2023-03-15T03:05:46.089Z,99.99
2023-03-15T03:06:46.449Z,99.99
2023-03-15T03:07:46.766Z,99.99
2023-03-15T03:08:47.297Z,99.99
2023-03-15T03:09:47.465Z,99.99
2023-03-15T03:10:47.835Z,99.99
2023-03-15T03:11:48.186Z,99.99
2023-03-15T03:12:48.663Z,99.99
2023-03-15T03:13:48.866Z,99.99
2023-03-15T03:14:49.217Z,99.99
2023-03-15T03:15:49.581Z,99.99
2023-03-15T03:16:49.977Z,99.99
2023-03-15T03:17:50.309Z,99.99
2023-03-15T03:18:50.636Z,99.99
2023-03-15T03:19:50.988Z,99.99
2023-03-15T03:20:51.363Z,99.99
2023-03-15T03:21:51.749Z,99.99
2023-03-15T03:22:52.039Z,99.99
2023-03-15T03:23:52.493Z,99.99
2023-03-15T03:24:52.729Z,99.99
2023-03-15T03:25:53.122Z,99.99
2023-03-15T03:26:53.487Z,99.99
2023-03-15T03:27:53.814Z,99.99
2023-03-15T03:28:54.172Z,99.99
2023-03-15T03:29:54.537Z,99.99
2023-03-15T03:30:54.945Z,99.99
2023-03-15T03:31:55.267Z,99.99
2023-03-15T03:32:55.691Z,99.99
2023-03-15T03:33:55.933Z,99.99
2023-03-15T03:34:56.341Z,99.99
2023-03-15T03:35:56.686Z,99.99
2023-03-15T03:36:57.075Z,99.99
2023-03-15T03:37:57.396Z,99.99
2023-03-15T03:38:57.764Z,99.99
2023-03-15T03:39:58.140Z,99.99
2023-03-15T03:40:58.486Z,99.99
2023-03-15T03:41:58.862Z,99.99
2023-03-15T03:42:59.198Z,99.99
2023-03-15T03:43:59.532Z,99.99
2023-03-15T03:44:59.892Z,99.99
2023-03-15T03:46:00.277Z,99.99
2023-03-15T03:47:00.633Z,99.99
2023-03-15T03:48:00.950Z,99.99
2023-03-15T03:49:01.335Z,99.99
2023-03-15T03:50:01.677Z,99.99
2023-03-15T03:51:02.027Z,99.99
2023-03-15T03:52:02.413Z,99.99
2023-03-15T03:53:02.751Z,99.99
2023-03-15T03:54:03.114Z,99.99
2023-03-15T03:55:03.422Z,99.99
2023-03-15T03:56:03.769Z,99.99
2023-03-15T03:57:04.164Z,99.99
2023-03-15T03:58:04.477Z,99.99
2023-03-15T03:59:04.903Z,99.99
2023-03-15T04:00:05.198Z,99.99
2023-03-15T04:01:05.564Z,99.99
2023-03-15T04:02:05.937Z,99.99
2023-03-15T04:03:06.301Z,99.99
2023-03-15T04:04:06.657Z,99.99
2023-03-15T04:05:07.032Z,99.99
2023-03-15T04:06:07.347Z,99.99
2023-03-15T04:07:07.752Z,99.99
2023-03-15T04:08:08.077Z,99.99
2023-03-15T04:09:08.428Z,99.99
2023-03-15T04:10:08.827Z,99.99
2023-03-15T04:11:09.164Z,99.99
2023-03-15T04:12:09.553Z,99.99
2023-03-15T04:13:09.882Z,99.99
2023-03-15T04:14:10.197Z,99.99
2023-03-15T04:15:10.553Z,99.99
2023-03-15T04:16:10.988Z,99.99
2023-03-15T04:17:11.295Z,99.99
2023-03-15T04:18:11.619Z,99.99
2023-03-15T04:19:11.986Z,99.99
2023-03-15T04:20:12.347Z,99.99
2023-03-15T04:21:12.722Z,99.99
2023-03-15T04:22:13.088Z,99.99
2023-03-15T04:23:13.415Z,99.99
2023-03-15T04:24:13.769Z,99.99
2023-03-15T04:25:14.129Z,99.99
2023-03-15T04:26:14.511Z,99.99
2023-03-15T04:27:14.941Z,99.99
2023-03-15T04:28:15.198Z,99.99
2023-03-15T04:29:15.542Z,99.99
2023-03-15T04:30:15.864Z,99.99
2023-03-15T04:31:16.341Z,99.99
2023-03-15T04:32:16.585Z,99.99
2023-03-15T04:33:16.921Z,99.99
2023-03-15T04:34:17.281Z,99.99
2023-03-15T04:35:17.738Z,99.99
2023-03-15T04:36:18.031Z,99.99
2023-03-15T04:37:18.365Z,99.99
2023-03-15T04:38:18.709Z,99.99
2023-03-15T04:39:19.205Z,99.99
2023-03-15T04:40:19.375Z,99.99
2023-03-15T04:41:19.741Z,99.99
2023-03-15T04:42:20.230Z,99.99
2023-03-15T04:43:20.467Z,99.99
2023-03-15T04:44:20.833Z,99.99
2023-03-15T04:45:21.176Z,99.99
2023-03-15T04:46:23.948Z,99.99
2023-03-15T04:47:21.910Z,99.99
2023-03-15T04:48:22.265Z,99.99
2023-03-15T04:49:22.647Z,99.99
2023-03-15T04:50:22.978Z,99.99
2023-03-15T04:51:23.379Z,99.99
2023-03-15T04:52:23.675Z,99.99
2023-03-15T04:53:24.013Z,99.99
2023-03-15T04:54:24.369Z,99.99
2023-03-15T04:55:24.724Z,99.99
2023-03-15T04:56:25.085Z,99.99
2023-03-15T04:57:25.477Z,99.99
2023-03-15T04:58:25.817Z,99.99
2023-03-15T04:59:26.180Z,99.99
2023-03-15T05:00:26.568Z,99.99
2023-03-15T05:01:26.924Z,99.99
2023-03-15T05:02:27.304Z,99.99
2023-03-15T05:03:27.339Z,99.99
2023-03-15T05:04:27.640Z,99.99
2023-03-15T05:05:27.945Z,99.99
2023-03-15T05:06:28.243Z,99.99
2023-03-15T05:07:28.481Z,99.99
2023-03-15T05:08:28.692Z,99.99
2023-03-15T05:09:28.968Z,99.99
2023-03-15T05:10:29.165Z,99.99
2023-03-15T05:11:29.313Z,99.99
2023-03-15T05:12:29.626Z,99.99
2023-03-15T05:13:29.897Z,99.99
2023-03-15T05:14:30.198Z,99.99
2023-03-15T05:15:30.517Z,99.99
2023-03-15T05:16:30.686Z,99.99
2023-03-15T05:17:30.861Z,99.99
2023-03-15T05:18:31.121Z,99.99
2023-03-15T05:19:31.373Z,99.99
2023-03-15T05:20:31.678Z,99.99
2023-03-15T05:21:31.971Z,99.99
2023-03-15T05:22:32.178Z,99.99
2023-03-15T05:23:32.303Z,99.99
2023-03-15T05:24:32.468Z,99.99
2023-03-15T05:25:32.768Z,99.99
2023-03-15T05:26:33.066Z,99.99
2023-03-15T05:27:33.387Z,99.99
2023-03-15T05:28:33.646Z,99.99
2023-03-15T05:29:33.965Z,99.99
2023-03-15T05:30:34.339Z,99.99
2023-03-15T05:31:34.544Z,99.99
2023-03-15T05:32:34.923Z,99.99
2023-03-15T05:33:34.879Z,99.99
2023-03-15T05:34:35.054Z,99.99
2023-03-15T05:35:35.340Z,99.99
2023-03-15T05:36:35.489Z,99.99
2023-03-15T05:37:35.692Z,99.99
2023-03-15T05:38:35.873Z,99.99
2023-03-15T05:39:36.046Z,99.99
2023-03-15T05:40:36.227Z,99.99
2023-03-15T05:41:36.386Z,99.99
2023-03-15T05:42:36.615Z,99.99
2023-03-15T05:43:36.775Z,99.99
2023-03-15T05:44:36.943Z,99.99
2023-03-15T05:45:37.118Z,99.99
2023-03-15T05:46:37.363Z,99.99
2023-03-15T05:47:37.685Z,99.99
2023-03-15T05:48:37.732Z,99.99
2023-03-15T05:49:37.894Z,99.99
2023-03-15T05:50:38.078Z,99.99
2023-03-15T05:51:38.245Z,99.99
2023-03-15T05:52:38.448Z,99.99
2023-03-15T05:53:38.585Z,99.99
2023-03-15T05:54:38.779Z,99.99
2023-03-15T05:55:38.969Z,99.99
2023-03-15T05:56:40.110Z,99.99
2023-03-15T05:57:39.330Z,99.99
2023-03-15T05:58:39.483Z,99.99
2023-03-15T05:59:39.664Z,99.99
2023-03-15T06:00:39.824Z,99.99
2023-03-15T06:01:39.990Z,99.99
2023-03-15T06:02:40.236Z,99.99
2023-03-15T06:03:40.443Z,99.99
2023-03-15T06:04:40.540Z,99.99
2023-03-15T06:05:40.722Z,99.99
2023-03-15T06:06:40.882Z,99.99
2023-03-15T06:07:41.101Z,99.99
2023-03-15T06:08:41.241Z,99.99
2023-03-15T06:09:41.414Z,99.99
2023-03-15T06:10:41.712Z,99.99
2023-03-15T06:11:42.001Z,99.99
2023-03-15T06:12:42.224Z,99.99
2023-03-15T06:13:42.385Z,99.99
2023-03-15T06:14:42.679Z,99.99
2023-03-15T06:15:43.005Z,99.99
2023-03-15T06:16:43.278Z,99.99
2023-03-15T06:17:43.380Z,99.99
2023-03-15T06:18:43.646Z,99.99
2023-03-15T06:19:43.845Z,99.99
2023-03-15T06:20:44.015Z,99.99
2023-03-15T06:21:44.368Z,99.99
2023-03-15T06:22:44.531Z,99.99
2023-03-15T06:23:44.686Z,99.99
2023-03-15T06:24:44.864Z,99.99
2023-03-15T06:25:45.038Z,99.99
2023-03-15T06:26:45.492Z,99.99
2023-03-15T06:27:45.570Z,99.99
2023-03-15T06:28:45.728Z,99.99
2023-03-15T06:29:46.042Z,99.99
2023-03-15T06:30:46.239Z,99.99
2023-03-15T06:31:46.389Z,99.99
2023-03-15T06:32:46.890Z,99.99
2023-03-15T06:33:46.884Z,99.99
2023-03-15T06:34:47.037Z,99.99
2023-03-15T06:35:47.434Z,99.99
2023-03-15T06:36:47.565Z,99.99
2023-03-15T06:37:47.740Z,99.99
2023-03-15T06:38:47.895Z,99.99
2023-03-15T06:39:48.104Z,99.99
2023-03-15T06:40:48.249Z,99.99
2023-03-15T06:41:48.462Z,99.99
2023-03-15T06:42:48.646Z,99.99
2023-03-15T06:43:48.802Z,99.99
2023-03-15T06:44:51.136Z,99.99
2023-03-15T06:45:49.203Z,99.99
2023-03-15T06:46:49.324Z,99.99
2023-03-15T06:47:49.669Z,99.99
2023-03-15T06:48:50.018Z,99.99
2023-03-15T06:49:50.288Z,99.99
2023-03-15T06:50:50.417Z,99.99
2023-03-15T06:51:50.637Z,99.99
2023-03-15T06:52:50.840Z,99.99
2023-03-15T06:53:50.983Z,99.99
2023-03-15T06:54:51.310Z,99.99
2023-03-15T06:55:51.469Z,99.99
2023-03-15T06:56:51.616Z,99.99
2023-03-15T06:57:51.938Z,99.99
2023-03-15T06:58:52.136Z,99.99
2023-03-15T06:59:52.302Z,99.99
2023-03-15T07:00:52.477Z,99.99
2023-03-15T07:01:52.751Z,99.99
2023-03-15T07:02:52.897Z,99.99
2023-03-15T07:03:53.052Z,99.99
2023-03-15T07:04:53.340Z,99.99
2023-03-15T07:05:53.519Z,99.99
2023-03-15T07:06:53.730Z,99.99
2023-03-15T07:07:53.923Z,99.99
2023-03-15T07:08:54.053Z,99.99
2023-03-15T07:09:55.215Z,99.99
2023-03-15T07:10:54.401Z,99.99
2023-03-15T07:11:54.583Z,99.99
2023-03-15T07:12:54.774Z,99.99
2023-03-15T07:13:54.941Z,99.99
2023-03-15T07:14:55.097Z,99.99
2023-03-15T07:15:55.292Z,99.99
2023-03-15T07:16:55.451Z,99.99
2023-03-15T07:17:55.647Z,99.99
2023-03-15T07:18:55.804Z,99.99
2023-03-15T07:19:56.993Z,99.99
2023-03-15T07:20:56.131Z,99.99
2023-03-15T07:21:56.310Z,99.99
2023-03-15T07:22:56.490Z,99.99
2023-03-15T07:23:56.655Z,99.99
2023-03-15T07:24:56.873Z,99.99
2023-03-15T07:25:57.025Z,99.99
2023-03-15T07:26:57.218Z,99.99
2023-03-15T07:27:57.423Z,99.99
2023-03-15T07:28:57.711Z,99.99
2023-03-15T07:29:57.906Z,99.99
2023-03-15T07:30:58.240Z,99.99
2023-03-15T07:31:58.445Z,99.99
2023-03-15T07:32:58.741Z,99.99
2023-03-15T07:33:58.730Z,99.99
2023-03-15T07:34:58.920Z,99.99
2023-03-15T07:35:59.248Z,99.99
2023-03-15T07:36:59.408Z,99.99
2023-03-15T07:37:59.729Z,99.99
2023-03-15T07:38:59.895Z,99.99
2023-03-15T07:40:00.056Z,99.99
2023-03-15T07:41:00.378Z,99.99
2023-03-15T07:42:00.577Z,99.99
2023-03-15T07:43:00.860Z,99.99
2023-03-15T07:44:01.018Z,99.99
2023-03-15T07:45:01.256Z,99.99
2023-03-15T07:46:01.490Z,99.99
2023-03-15T07:47:01.631Z,99.99
2023-03-15T07:48:01.740Z,99.99
2023-03-15T07:49:01.914Z,99.99
2023-03-15T07:50:02.199Z,99.99
2023-03-15T07:51:02.397Z,99.99
2023-03-15T07:52:02.575Z,99.99
2023-03-15T07:53:02.890Z,99.99
2023-03-15T07:54:03.179Z,99.99
2023-03-15T07:55:03.397Z,99.99
2023-03-15T07:56:03.552Z,99.99
2023-03-15T07:57:03.791Z,99.99
2023-03-15T07:58:03.939Z,99.99
2023-03-15T07:59:04.217Z,99.99
2023-03-15T08:00:04.566Z,99.99
2023-03-15T08:01:04.847Z,99.99
2023-03-15T08:02:05.154Z,99.99
2023-03-15T08:03:05.549Z,99.99
2023-03-15T08:04:05.625Z,99.99
2023-03-15T08:05:05.900Z,99.99
2023-03-15T08:06:06.089Z,99.99
2023-03-15T08:07:06.281Z,99.99
2023-03-15T08:08:06.533Z,99.99
2023-03-15T08:09:06.769Z,99.99
2023-03-15T08:10:06.888Z,99.99
2023-03-15T08:11:07.175Z,99.99
2023-03-15T08:12:07.483Z,99.99
2023-03-15T08:13:07.783Z,99.99
2023-03-15T08:14:07.947Z,99.99
2023-03-15T08:15:08.269Z,99.99
2023-03-15T08:16:08.671Z,99.99
2023-03-15T08:17:08.733Z,99.99
2023-03-15T08:18:09.098Z,99.99
2023-03-15T08:19:09.246Z,99.99
2023-03-15T08:20:09.529Z,99.99
2023-03-15T08:21:09.725Z,99.99
2023-03-15T08:22:10.036Z,99.99
2023-03-15T08:23:10.235Z,99.99
2023-03-15T08:24:10.506Z,99.99
2023-03-15T08:25:10.842Z,99.99
2023-03-15T08:26:11.107Z,99.99
2023-03-15T08:27:11.286Z,99.99
2023-03-15T08:28:11.495Z,99.99
2023-03-15T08:29:11.656Z,99.99
2023-03-15T08:30:11.841Z,99.99
2023-03-15T08:31:12.063Z,99.99
2023-03-15T08:32:12.322Z,99.99
2023-03-15T08:33:12.559Z,99.99
2023-03-15T08:34:12.735Z,99.99
2023-03-15T08:35:15.456Z,99.99
2023-03-15T08:36:13.386Z,99.99
2023-03-15T08:37:13.506Z,99.99
2023-03-15T08:38:13.678Z,99.99
2023-03-15T08:39:13.821Z,99.99
2023-03-15T08:40:14.008Z,99.99
2023-03-15T08:41:14.263Z,99.99
2023-03-15T08:42:14.393Z,99.99
2023-03-15T08:43:14.738Z,99.41
2023-03-15T08:44:14.980Z,99.30
2023-03-15T08:45:15.227Z,99.26
2023-03-15T08:46:15.450Z,97.70
2023-03-15T08:47:15.521Z,96.14
2023-03-15T08:48:15.832Z,96.09
2023-03-15T08:49:16.129Z,95.26
2023-03-15T08:50:16.296Z,94.84
2023-03-15T08:51:16.466Z,94.43
2023-03-15T08:52:18.205Z,93.87
2023-03-15T08:53:16.940Z,93.55
2023-03-15T08:54:17.231Z,92.93
2023-03-15T08:55:17.433Z,92.30
2023-03-15T08:56:17.630Z,93.20
2023-03-15T08:57:17.818Z,92.43
2023-03-15T08:58:18.071Z,90.77
2023-03-15T08:59:29.039Z,90.66
2023-03-15T09:00:18.364Z,91.03
2023-03-15T09:01:18.522Z,91.55
2023-03-15T09:02:18.728Z,91.35
2023-03-15T09:03:18.955Z,92.43
2023-03-15T09:04:19.286Z,90.91
2023-03-15T09:05:19.520Z,91.85
2023-03-15T09:06:19.740Z,93.66
2023-03-15T09:07:19.993Z,94.32
2023-03-15T09:08:20.221Z,94.51
2023-03-15T09:09:20.389Z,96.08
2023-03-15T09:10:20.685Z,97.33
2023-03-15T09:11:20.875Z,98.05
2023-03-15T09:12:21.056Z,98.36
2023-03-15T09:13:21.290Z,97.85
2023-03-15T09:14:21.550Z,97.43
2023-03-15T09:15:21.981Z,97.33
2023-03-15T09:16:22.193Z,97.70
2023-03-15T09:17:22.325Z,97.80
2023-03-15T09:18:22.537Z,97.80
2023-03-15T09:19:22.699Z,98.22
2023-03-15T09:20:23.194Z,98.07
2023-03-15T09:21:23.298Z,97.65
2023-03-15T09:22:38.500Z,97.65
2023-03-15T09:23:23.819Z,97.61
2023-03-15T09:24:23.992Z,96.47
2023-03-15T09:25:24.279Z,95.73
2023-03-15T09:26:24.436Z,95.79
2023-03-15T09:27:24.636Z,95.48
2023-03-15T09:28:24.829Z,94.61
2023-03-15T09:29:25.002Z,94.30
2023-03-15T09:30:25.246Z,93.68
2023-03-15T09:31:25.399Z,93.57
2023-03-15T09:32:25.565Z,93.84
2023-03-15T09:33:25.716Z,92.18
2023-03-15T09:34:27.522Z,92.38
2023-03-15T09:35:26.084Z,91.45
2023-03-15T09:36:26.212Z,91.14
2023-03-15T09:37:26.390Z,89.17
2023-03-15T09:38:26.691Z,88.85
2023-03-15T09:39:26.857Z,88.34
2023-03-15T09:40:27.149Z,87.61
2023-03-15T09:41:27.349Z,87.51
2023-03-15T09:42:27.544Z,88.40
2023-03-15T09:43:27.709Z,87.95
2023-03-15T09:44:27.868Z,87.26
2023-03-15T09:45:28.033Z,87.57
2023-03-15T09:46:28.335Z,87.95
2023-03-15T09:47:28.394Z,86.80
2023-03-15T09:48:28.708Z,86.45
2023-03-15T09:49:28.881Z,86.04
2023-03-15T09:50:29.074Z,86.15
2023-03-15T09:51:29.271Z,85.63
2023-03-15T09:52:29.470Z,87.14
2023-03-15T09:53:29.628Z,86.52
2023-03-15T09:54:29.940Z,86.45
2023-03-15T09:55:30.222Z,87.70
2023-03-15T09:56:30.509Z,87.53
2023-03-15T09:57:30.823Z,89.71
2023-03-15T09:58:31.029Z,89.81
2023-03-15T09:59:31.177Z,90.37
2023-03-15T10:00:31.381Z,92.30
2023-03-15T10:01:31.625Z,92.41
2023-03-15T10:02:31.745Z,91.93
2023-03-15T10:03:32.171Z,91.20
2023-03-15T10:04:32.242Z,91.99
2023-03-15T10:05:32.451Z,91.43
2023-03-15T10:06:32.718Z,90.29
2023-03-15T10:07:32.804Z,89.83
2023-03-15T10:08:32.996Z,90.04
2023-03-15T10:09:33.195Z,89.17
2023-03-15T10:10:33.359Z,88.32
2023-03-15T10:11:33.540Z,88.84
2023-03-15T10:12:33.845Z,89.29
2023-03-15T10:13:34.153Z,91.20
2023-03-15T10:14:34.313Z,91.78
2023-03-15T10:15:34.498Z,90.75
2023-03-15T10:16:34.681Z,90.66
2023-03-15T10:17:34.868Z,91.08
2023-03-15T10:18:35.052Z,90.60
2023-03-15T10:19:35.245Z,91.28
2023-03-15T10:20:35.404Z,90.45
2023-03-15T10:21:35.586Z,89.62
2023-03-15T10:22:35.778Z,89.15
2023-03-15T10:23:36.077Z,89.61
2023-03-15T10:24:36.232Z,90.02
2023-03-15T10:25:36.529Z,90.02
2023-03-15T10:26:36.832Z,89.13
2023-03-15T10:27:37.029Z,88.78
2023-03-15T10:28:37.328Z,87.78
2023-03-15T10:29:37.502Z,86.85
2023-03-15T10:30:38.606Z,85.73
2023-03-15T10:31:44.591Z,85.56
2023-03-15T10:32:38.131Z,85.73
2023-03-15T10:33:38.290Z,83.62
2023-03-15T10:34:38.443Z,84.34
2023-03-15T10:35:38.776Z,84.30
2023-03-15T10:36:38.862Z,83.40
2023-03-15T10:37:39.626Z,84.53
2023-03-15T10:38:39.297Z,81.74
2023-03-15T10:39:39.354Z,82.71
2023-03-15T10:40:39.670Z,82.88
2023-03-15T10:41:39.727Z,81.60
2023-03-15T10:42:40.243Z,79.74
2023-03-15T10:43:40.211Z,81.12
2023-03-15T10:44:40.301Z,81.09
2023-03-15T10:45:40.634Z,80.12
2023-03-15T10:46:40.892Z,79.16
2023-03-15T10:47:42.788Z,81.05
2023-03-15T10:48:41.218Z,80.64
2023-03-15T10:49:41.345Z,80.71
2023-03-15T10:50:41.616Z,82.65
2023-03-15T10:51:41.855Z,79.78
2023-03-15T10:52:41.982Z,82.19
2023-03-15T10:53:42.201Z,82.32
2023-03-15T10:54:43.018Z,81.46
2023-03-15T10:55:42.563Z,80.26
2023-03-15T10:56:42.728Z,79.36
2023-03-15T10:57:42.958Z,78.19
2023-03-15T10:58:43.109Z,81.02
2023-03-15T10:59:43.307Z,79.88
2023-03-15T11:00:43.533Z,79.05
2023-03-15T11:01:43.668Z,78.16
2023-03-15T11:02:43.880Z,80.46
2023-03-15T11:03:44.074Z,78.02
2023-03-15T11:04:44.206Z,77.77
2023-03-15T11:05:44.403Z,77.56
2023-03-15T11:06:44.579Z,78.67
2023-03-15T11:07:44.771Z,77.19
2023-03-15T11:08:45.017Z,79.60
2023-03-15T11:09:45.137Z,78.50
2023-03-15T11:10:45.361Z,79.74
2023-03-15T11:11:45.509Z,78.15
2023-03-15T11:12:45.761Z,78.94
2023-03-15T11:13:45.932Z,79.84
2023-03-15T11:14:46.136Z,80.46
2023-03-15T11:15:46.300Z,80.40
2023-03-15T11:16:46.471Z,81.35
2023-03-15T11:17:46.666Z,80.29
2023-03-15T11:18:46.856Z,81.60
2023-03-15T11:19:47.043Z,80.57
2023-03-15T11:20:47.258Z,79.43
2023-03-15T11:21:47.419Z,78.63
2023-03-15T11:22:47.583Z,77.98
2023-03-15T11:23:47.812Z,79.80
2023-03-15T11:24:48.085Z,79.25
2023-03-15T11:25:48.163Z,79.25
2023-03-15T11:26:48.342Z,79.12
2023-03-15T11:27:48.552Z,78.95
2023-03-15T11:28:48.755Z,79.43
2023-03-15T11:29:48.989Z,77.87
2023-03-15T11:30:49.126Z,76.95
2023-03-15T11:31:49.349Z,77.47
2023-03-15T11:32:49.554Z,78.25
2023-03-15T11:33:49.690Z,78.60
2023-03-15T11:34:49.864Z,79.43
2023-03-15T11:35:50.155Z,79.94
2023-03-15T11:36:58.701Z,79.47
2023-03-15T11:37:50.621Z,79.57
2023-03-15T11:38:50.818Z,77.67
2023-03-15T11:39:53.704Z,78.50
2023-03-15T11:40:51.442Z,79.67
2023-03-15T11:41:51.702Z,79.05
2023-03-15T11:42:51.883Z,78.74
2023-03-15T11:43:52.092Z,78.74
2023-03-15T11:44:52.370Z,78.95
2023-03-15T11:45:52.596Z,78.85
2023-03-15T11:46:52.744Z,79.98
2023-03-15T11:47:52.940Z,79.74
2023-03-15T11:48:53.134Z,79.49
2023-03-15T11:49:53.322Z,78.88
2023-03-15T11:50:53.507Z,78.94
2023-03-15T11:51:53.926Z,78.36
2023-03-15T11:52:53.999Z,78.15
2023-03-15T11:53:54.202Z,77.70
2023-03-15T11:54:54.373Z,79.15
2023-03-15T11:55:54.568Z,77.73
2023-03-15T11:56:54.766Z,76.18
2023-03-15T11:57:54.981Z,77.01
2023-03-15T11:58:55.142Z,77.67
2023-03-15T11:59:55.324Z,77.53
2023-03-15T12:00:55.610Z,75.84
2023-03-15T12:01:55.890Z,78.25
2023-03-15T12:02:56.016Z,79.19
2023-03-15T12:03:56.172Z,78.56
2023-03-15T12:04:57.223Z,78.08
2023-03-15T12:05:56.488Z,76.32
2023-03-15T12:06:56.686Z,76.01
2023-03-15T12:07:56.859Z,76.01
2023-03-15T12:08:57.104Z,75.98
2023-03-15T12:09:57.369Z,76.77
2023-03-15T12:10:57.650Z,75.98
2023-03-15T12:11:57.858Z,76.19
2023-03-15T12:12:58.163Z,79.86
2023-03-15T12:13:58.345Z,85.28
2023-03-15T12:14:58.500Z,87.98
2023-03-15T12:15:58.662Z,89.70
2023-03-15T12:16:59.058Z,89.39
2023-03-15T12:17:59.127Z,88.67
2023-03-15T12:18:59.363Z,86.76
2023-03-15T12:19:59.645Z,87.79
2023-03-15T12:20:59.917Z,86.34
2023-03-15T12:22:00.117Z,86.30
2023-03-15T12:23:00.307Z,85.16
2023-03-15T12:24:00.522Z,85.33
2023-03-15T12:25:00.683Z,86.08
2023-03-15T12:26:00.844Z,84.90
2023-03-15T12:27:01.017Z,86.58
2023-03-15T12:28:01.206Z,87.51
2023-03-15T12:29:01.450Z,88.09
2023-03-15T12:30:01.609Z,88.67
2023-03-15T12:31:01.888Z,87.82
2023-03-15T12:32:01.970Z,87.76
2023-03-15T12:33:02.232Z,88.34
2023-03-15T12:34:02.344Z,89.29
2023-03-15T12:35:02.543Z,87.99
2023-03-15T12:36:02.819Z,87.95
2023-03-15T12:37:02.912Z,86.60
2023-03-15T12:38:03.108Z,85.88
2023-03-15T12:39:03.314Z,85.57
2023-03-15T12:40:03.454Z,84.53
2023-03-15T12:41:03.663Z,85.53
2023-03-15T12:42:03.806Z,84.73
2023-03-15T12:43:03.994Z,81.15
2023-03-15T12:44:04.265Z,81.05
2023-03-15T12:45:04.393Z,81.18
2023-03-15T12:46:04.624Z,80.57
2023-03-15T12:47:04.799Z,80.74
2023-03-15T12:48:04.920Z,80.43
2023-03-15T12:49:05.274Z,80.18
2023-03-15T12:50:05.466Z,79.19
2023-03-15T12:51:05.506Z,78.32
2023-03-15T12:52:05.708Z,78.77
2023-03-15T12:53:05.907Z,78.35
2023-03-15T12:54:06.068Z,77.18
2023-03-15T12:55:06.247Z,74.98
2023-03-15T12:56:08.939Z,75.57